Glen, NH (03838)

2:30 PM EST on January 26, 2015 (GMT -0500)
Higgins Location | Change Station
CLOSE
Current Station
Personal Weather Station
Location: Glen, NH
Elevation: 1155 ft
Nearby Weather Stations
Active Advisory: Winter Storm Warning

Elev 1155 ft 44.12 °N, 71.20 °W | Updated 14 minutes ago

Clear
Clear
15.6 °F
Feels Like 16 °F
N
3.0
Wind Variable Wind from SE
Gusts 5.0 mph

Today
High -- | Low -- °F
--% Chance of Precip.
Yesterday
High -- | Low -- °F
Precip. -- in
7:08 AM 4:46 PM
Waxing Crescent, 46% visible
Pressure 30.13 in
Visibility 10.0 miles
Clouds Clear
Windchill 16 °F
Dew Point -9 °F
Humidity 32%
Rainfall 0.00 in
Snow Depth Not available.
UV 2 out of 12
Pollen .10 out of 12
Air Quality Not available.
Flu Activity Not available.
METAR KIZG 261854Z AUTO 01003KT 10SM CLR M07/M22 A3009 RMK AO2 SLP202 T10671217

More Conditions Fewer Conditions

Pressure 30.13 in
Visibility 10.0 miles
Clouds Clear
Windchill 16 °F
Dew Point -9 °F
Humidity 32%
Rainfall 0.00 in
Snow Depth Not available.
UV 2 out of 12
Pollen .10 out of 12
Air Quality Not available.
Flu Activity Not available.
METAR KIZG 261854Z AUTO 01003KT 10SM CLR M07/M22 A3009 RMK AO2 SLP202 T10671217

More Conditions Fewer Conditions

10-Day Weather Forecast

Almanac

Astronomy

Jan. 26, 2015 Rise Set
Actual Time
Civil Twilight
Nautical Twilight
Astronomical Twilight
Moon
Length of Visible Light
Length of Day
Tomorrow will be .
, % of the Moon is Illuminated

Today's Extremes

State Highs State Lows

Community

WunderPhotos

Upload Photos

1,790,338 photos uploaded!

WunderBlogs® & News

Nearby

Air Quality

  Air Quality AQ Index Pollutant
Not available.

Snow Depth

Station Depth Elevation

Earthquake Activity

City Distance Mag. Time & Date
Minimum magnitude displayed is 2.5.

Coastal Water Temperatures

Place Temperature

Nearby Weather Stations